createdAt,value
2023-06-04T00:00:41.603Z,100563.94
2023-06-04T00:03:44.396Z,100555.06
2023-06-04T00:06:46.619Z,100552.09
2023-06-04T00:09:49.859Z,100558.53
2023-06-04T00:12:52.032Z,100561.34
2023-06-04T00:15:54.391Z,100554.19
2023-06-04T00:18:56.560Z,100561.63
2023-06-04T00:21:59.105Z,100565.25
2023-06-04T00:25:01.261Z,100565.19
2023-06-04T00:28:04.278Z,100559.50
2023-06-04T00:31:07.522Z,100552.91
2023-06-04T00:34:11.357Z,100559.75
2023-06-04T00:37:14.163Z,100551.97
2023-06-04T00:40:16.693Z,100543.50
2023-06-04T00:43:19.958Z,100542.16
2023-06-04T00:46:26.800Z,100551.47
2023-06-04T00:49:29.170Z,100553.53
2023-06-04T00:52:31.784Z,100552.69
2023-06-04T00:55:33.927Z,100547.66
2023-06-04T00:58:40.255Z,100551.78
2023-06-04T01:01:58.338Z,100550.25
2023-06-04T01:05:13.225Z,100552.78
2023-06-04T01:08:16.443Z,100551.00
2023-06-04T01:11:19.178Z,100546.75
2023-06-04T01:14:21.409Z,100553.13
2023-06-04T01:17:38.575Z,100543.91
2023-06-04T01:20:45.624Z,100547.25
2023-06-04T01:23:59.401Z,100533.44
2023-06-04T01:27:02.991Z,100534.69
2023-06-04T01:30:06.460Z,100548.56
2023-06-04T01:33:08.564Z,100536.94
2023-06-04T01:36:13.374Z,100551.09
2023-06-04T01:39:15.435Z,100551.59
2023-06-04T01:42:17.815Z,100556.28
2023-06-04T01:45:21.830Z,100553.25
2023-06-04T01:48:24.291Z,100561.91
2023-06-04T01:51:26.361Z,100555.91
2023-06-04T01:54:31.088Z,100551.94
2023-06-04T01:57:33.343Z,100545.56
2023-06-04T02:00:36.319Z,100546.41
2023-06-04T02:03:39.123Z,100546.41
2023-06-04T02:06:42.051Z,100553.25
2023-06-04T02:09:45.528Z,100558.19
2023-06-04T02:12:55.918Z,100558.53
2023-06-04T02:15:58.608Z,100555.91
2023-06-04T02:19:00.719Z,100559.50
2023-06-04T02:22:03.286Z,100556.59
2023-06-04T02:25:06.491Z,100562.72
2023-06-04T02:28:09.386Z,100565.59
2023-06-04T02:31:13.771Z,100563.78
2023-06-04T02:34:16.613Z,100567.75
2023-06-04T02:37:18.782Z,100562.34
2023-06-04T02:40:21.269Z,100566.66
2023-06-04T02:43:23.371Z,100563.66
2023-06-04T02:46:26.025Z,100555.37
2023-06-04T02:49:28.539Z,100551.06
2023-06-04T02:52:31.707Z,100548.78
2023-06-04T02:55:33.820Z,100550.06
2023-06-04T02:58:40.251Z,100558.25
2023-06-04T03:01:42.479Z,100554.53
2023-06-04T03:04:45.350Z,100556.44
2023-06-04T03:07:47.746Z,100544.97
2023-06-04T03:10:51.608Z,100549.28
2023-06-04T03:13:55.212Z,100555.41
2023-06-04T03:16:57.631Z,100562.78
2023-06-04T03:19:59.745Z,100569.59
2023-06-04T03:23:02.248Z,100572.56
2023-06-04T03:26:05.019Z,100560.81
2023-06-04T03:29:07.515Z,100568.38
2023-06-04T03:32:09.663Z,100567.94
2023-06-04T03:35:12.815Z,100569.91
2023-06-04T03:38:16.200Z,100568.84
2023-06-04T03:41:18.934Z,100578.59
2023-06-04T03:44:21.269Z,100579.44
2023-06-04T03:47:24.118Z,100580.72
2023-06-04T03:50:26.544Z,100592.00
2023-06-04T03:53:30.548Z,100591.88
2023-06-04T03:56:33.381Z,100587.09
2023-06-04T03:59:36.206Z,100589.53
2023-06-04T04:02:39.275Z,100597.19
2023-06-04T04:05:42.563Z,100596.97
2023-06-04T04:08:45.455Z,100596.72
2023-06-04T04:11:48.176Z,100605.22
2023-06-04T04:14:51.054Z,100609.09
2023-06-04T04:17:54.104Z,100607.06
2023-06-04T04:20:56.958Z,100609.91
2023-06-04T04:23:59.817Z,100606.84
2023-06-04T04:27:04.562Z,100604.44
2023-06-04T04:30:07.871Z,100605.69
2023-06-04T04:33:11.786Z,100602.69
2023-06-04T04:36:20.498Z,100611.25
2023-06-04T04:39:25.262Z,100608.88
2023-06-04T04:42:29.157Z,100618.00
2023-06-04T04:45:31.669Z,100624.00
2023-06-04T04:48:36.140Z,100623.97
2023-06-04T04:51:38.284Z,100624.06
2023-06-04T04:54:41.182Z,100610.75
2023-06-04T04:57:43.617Z,100620.59
2023-06-04T05:00:48.715Z,100619.06
2023-06-04T05:03:50.933Z,100621.50
2023-06-04T05:06:53.680Z,100624.34
2023-06-04T05:09:56.405Z,100630.66
2023-06-04T05:13:00.150Z,100627.13
2023-06-04T05:16:07.777Z,100627.94
2023-06-04T05:19:12.021Z,100630.06
2023-06-04T05:22:19.683Z,100630.78
2023-06-04T05:25:22.777Z,100638.47
2023-06-04T05:28:26.205Z,100644.81
2023-06-04T05:31:29.173Z,100638.44
2023-06-04T05:34:32.107Z,100643.53
2023-06-04T05:37:39.242Z,100651.63
2023-06-04T05:40:41.760Z,100652.97
2023-06-04T05:43:45.699Z,100653.41
2023-06-04T05:46:48.383Z,100654.56
2023-06-04T05:49:51.407Z,100649.34
2023-06-04T05:52:53.998Z,100652.31
2023-06-04T05:55:57.054Z,100651.31
2023-06-04T05:58:59.642Z,100655.91
2023-06-04T06:02:03.618Z,100650.78
2023-06-04T06:05:09.278Z,100645.47
2023-06-04T06:08:11.612Z,100644.94
2023-06-04T06:11:14.583Z,100648.50
2023-06-04T06:14:17.098Z,100648.38
2023-06-04T06:17:19.624Z,100646.78
2023-06-04T06:20:23.135Z,100648.16
2023-06-04T06:23:25.915Z,100650.63
2023-06-04T06:26:28.217Z,100648.72
2023-06-04T06:29:31.272Z,100650.09
2023-06-04T06:32:33.587Z,100652.28
2023-06-04T06:35:36.223Z,100671.06
2023-06-04T06:38:38.722Z,100673.75
2023-06-04T06:41:41.506Z,100674.41
2023-06-04T06:44:45.219Z,100677.22
2023-06-04T06:47:47.751Z,100680.13
2023-06-04T06:50:49.811Z,100684.78
2023-06-04T06:53:52.230Z,100696.72
2023-06-04T06:56:54.388Z,100689.03
2023-06-04T06:59:57.066Z,100692.25
2023-06-04T07:02:59.514Z,100699.16
2023-06-04T07:06:02.127Z,100693.06
2023-06-04T07:09:06.593Z,100694.25
2023-06-04T07:12:09.093Z,100707.38
2023-06-04T07:15:11.251Z,100702.44
2023-06-04T07:18:13.832Z,100698.03
2023-06-04T07:21:16.831Z,100702.41
2023-06-04T07:24:19.224Z,100701.44
2023-06-04T07:27:23.252Z,100704.72
2023-06-04T07:30:28.955Z,100708.56
2023-06-04T07:33:31.111Z,100701.66
2023-06-04T07:36:33.943Z,100687.91
2023-06-04T07:39:36.116Z,100697.75
2023-06-04T07:42:38.569Z,100693.16
2023-06-04T07:45:40.697Z,100694.34
2023-06-04T07:48:44.020Z,100701.31
2023-06-04T07:51:47.230Z,100696.91
2023-06-04T07:54:49.585Z,100695.91
2023-06-04T07:57:51.820Z,100701.37
2023-06-04T08:00:54.597Z,100705.63
2023-06-04T08:03:58.586Z,100704.97
2023-06-04T08:07:01.091Z,100700.47
2023-06-04T08:10:03.729Z,100703.84
2023-06-04T08:13:06.004Z,100712.75
2023-06-04T08:16:11.032Z,100712.97
2023-06-04T08:19:14.131Z,100705.59
2023-06-04T08:22:16.647Z,100700.00
2023-06-04T08:25:18.869Z,100705.91
2023-06-04T08:28:22.097Z,100705.59
2023-06-04T08:31:24.167Z,100711.59
2023-06-04T08:34:26.548Z,100702.69
2023-06-04T08:37:29.254Z,100707.44
2023-06-04T08:40:32.285Z,100709.28
2023-06-04T08:43:35.398Z,100709.97
2023-06-04T08:46:41.714Z,100702.84
2023-06-04T08:49:47.610Z,100705.28
2023-06-04T08:52:54.579Z,100703.28
2023-06-04T08:55:56.839Z,100699.72
2023-06-04T08:59:04.433Z,100703.97
2023-06-04T09:02:06.776Z,100699.13
2023-06-04T09:05:11.835Z,100692.44
2023-06-04T09:08:15.204Z,100701.22
2023-06-04T09:11:21.092Z,100710.34
2023-06-04T09:14:23.392Z,100703.72
2023-06-04T09:17:26.482Z,100704.25
2023-06-04T09:20:29.556Z,100703.44
2023-06-04T09:23:33.040Z,100707.25
2023-06-04T09:26:35.920Z,100703.88
2023-06-04T09:29:38.295Z,100707.78
2023-06-04T09:32:40.400Z,100708.75
2023-06-04T09:35:42.872Z,100704.03
2023-06-04T09:38:45.118Z,100708.34
2023-06-04T09:41:58.136Z,100704.13
2023-06-04T09:45:02.423Z,100704.34
2023-06-04T09:48:09.484Z,100710.03
2023-06-04T09:51:13.200Z,100712.22
2023-06-04T09:54:15.629Z,100714.94
2023-06-04T09:57:18.601Z,100709.34
2023-06-04T10:00:22.178Z,100707.87
2023-06-04T10:03:26.740Z,100709.56
2023-06-04T10:06:33.865Z,100711.28
2023-06-04T10:09:43.505Z,100714.16
2023-06-04T10:12:50.981Z,100716.97
2023-06-04T10:15:53.612Z,100719.50
2023-06-04T10:18:56.688Z,100717.53
2023-06-04T10:21:58.772Z,100720.91
2023-06-04T10:25:01.541Z,100719.72
2023-06-04T10:28:04.798Z,100703.81
2023-06-04T10:31:07.450Z,100710.66
2023-06-04T10:34:09.848Z,100702.81
2023-06-04T10:37:25.585Z,100706.66
2023-06-04T10:40:37.317Z,100709.97
2023-06-04T10:43:41.136Z,100711.19
2023-06-04T10:46:44.171Z,100715.69
2023-06-04T10:49:47.098Z,100719.50
2023-06-04T10:52:56.416Z,100719.22
2023-06-04T10:55:58.821Z,100699.19
2023-06-04T10:59:01.734Z,100709.69
2023-06-04T11:02:07.844Z,100709.13
2023-06-04T11:05:12.076Z,100712.28
2023-06-04T11:08:15.548Z,100710.81
2023-06-04T11:11:18.093Z,100717.66
2023-06-04T11:14:21.616Z,100714.87
2023-06-04T11:17:23.834Z,100708.28
2023-06-04T11:20:26.586Z,100709.69
2023-06-04T11:23:28.840Z,100707.16
2023-06-04T11:26:40.282Z,100718.81
2023-06-04T11:29:43.384Z,100714.53
2023-06-04T11:32:46.223Z,100711.75
2023-06-04T11:35:48.294Z,100711.22
2023-06-04T11:39:00.941Z,100701.47
2023-06-04T11:42:05.785Z,100710.19
2023-06-04T11:45:08.755Z,100701.37
2023-06-04T11:48:12.025Z,100706.88
2023-06-04T11:51:14.699Z,100697.41
2023-06-04T11:54:17.703Z,100698.09
2023-06-04T11:57:20.094Z,100713.00
2023-06-04T12:00:22.604Z,100705.34
2023-06-04T12:03:34.833Z,100710.22
2023-06-04T12:06:36.966Z,100719.59
2023-06-04T12:09:40.376Z,100711.56
2023-06-04T12:12:47.185Z,100709.19
2023-06-04T12:15:52.276Z,100710.53
2023-06-04T12:19:05.175Z,100706.84
2023-06-04T12:22:08.563Z,100708.22
2023-06-04T12:25:10.774Z,100710.53
2023-06-04T12:28:19.436Z,100713.72
2023-06-04T12:31:21.891Z,100700.34
2023-06-04T12:34:24.482Z,100706.12
2023-06-04T12:37:26.955Z,100705.44
2023-06-04T12:40:29.560Z,100706.47
2023-06-04T12:43:34.655Z,100700.88
2023-06-04T12:46:37.443Z,100705.97
2023-06-04T12:49:39.685Z,100699.31
2023-06-04T12:52:42.402Z,100693.47
2023-06-04T12:55:44.461Z,100694.75
2023-06-04T12:58:46.859Z,100690.91
2023-06-04T13:01:49.036Z,100689.56
2023-06-04T13:04:56.233Z,100691.34
2023-06-04T13:07:58.878Z,100687.09
2023-06-04T13:11:02.561Z,100682.19
2023-06-04T13:14:04.859Z,100687.41
2023-06-04T13:17:18.035Z,100685.66
2023-06-04T13:20:24.379Z,100675.09
2023-06-04T13:23:34.332Z,100667.19
2023-06-04T13:26:43.872Z,100665.31
2023-06-04T13:29:46.264Z,100667.34
2023-06-04T13:32:48.650Z,100658.47
2023-06-04T13:35:51.588Z,100653.53
2023-06-04T13:38:55.975Z,100655.00
2023-06-04T13:41:58.461Z,100658.16
2023-06-04T13:45:01.443Z,100655.09
2023-06-04T13:48:08.246Z,100652.66
2023-06-04T13:51:10.827Z,100648.25
2023-06-04T13:54:13.570Z,100645.66
2023-06-04T13:57:15.748Z,100648.94
2023-06-04T14:00:18.207Z,100640.97
2023-06-04T14:03:21.252Z,100640.59
2023-06-04T14:06:23.586Z,100642.72
2023-06-04T14:09:25.981Z,100642.31
2023-06-04T14:12:28.038Z,100635.75
2023-06-04T14:15:30.383Z,100631.19
2023-06-04T14:18:32.462Z,100629.16
2023-06-04T14:21:34.809Z,100632.09
2023-06-04T14:24:39.338Z,100626.16
2023-06-04T14:27:41.983Z,100637.88
2023-06-04T14:30:44.034Z,100623.47
2023-06-04T14:33:46.500Z,100630.50
2023-06-04T14:36:49.176Z,100627.41
2023-06-04T14:39:51.547Z,100622.16
2023-06-04T14:42:53.842Z,100622.97
2023-06-04T14:45:56.393Z,100618.50
2023-06-04T14:48:59.063Z,100614.50
2023-06-04T14:52:01.792Z,100620.69
2023-06-04T14:55:03.959Z,100614.03
2023-06-04T14:58:06.537Z,100614.69
2023-06-04T15:01:11.405Z,100619.09
2023-06-04T15:04:13.969Z,100609.50
2023-06-04T15:07:16.118Z,100611.22
2023-06-04T15:10:18.463Z,100606.53
2023-06-04T15:13:20.498Z,100601.41
2023-06-04T15:16:23.217Z,100596.53
2023-06-04T15:19:25.355Z,100597.38
2023-06-04T15:22:28.440Z,100582.34
2023-06-04T15:25:30.771Z,100585.00
2023-06-04T15:28:33.654Z,100588.78
2023-06-04T15:31:35.817Z,100579.25
2023-06-04T15:34:38.260Z,100593.31
2023-06-04T15:37:40.851Z,100588.50
2023-06-04T15:40:43.266Z,100596.69
2023-06-04T15:43:45.425Z,100582.44
2023-06-04T15:46:48.288Z,100581.91
2023-06-04T15:49:50.404Z,100578.31
2023-06-04T15:52:53.015Z,100570.50
2023-06-04T15:55:55.688Z,100575.47
2023-06-04T15:58:58.246Z,100576.09
2023-06-04T16:02:02.841Z,100577.62
2023-06-04T16:05:06.037Z,100568.81
2023-06-04T16:08:08.288Z,100577.47
2023-06-04T16:11:10.832Z,100572.34
2023-06-04T16:14:13.371Z,100572.69
2023-06-04T16:17:15.799Z,100573.22
2023-06-04T16:20:19.461Z,100572.34
2023-06-04T16:23:22.368Z,100571.53
2023-06-04T16:26:25.054Z,100564.34
2023-06-04T16:29:27.351Z,100568.72
2023-06-04T16:32:29.475Z,100565.53
2023-06-04T16:35:33.041Z,100568.38
2023-06-04T16:38:35.270Z,100575.56
2023-06-04T16:41:37.997Z,100578.06
2023-06-04T16:44:40.644Z,100578.59
2023-06-04T16:47:44.238Z,100578.91
2023-06-04T16:50:46.293Z,100583.28
2023-06-04T16:53:48.655Z,100581.94
2023-06-04T16:56:51.134Z,100577.09
2023-06-04T16:59:53.822Z,100577.22
2023-06-04T17:02:57.486Z,100575.53
2023-06-04T17:06:00.172Z,100573.22
2023-06-04T17:09:02.459Z,100576.72
2023-06-04T17:12:05.175Z,100568.69
2023-06-04T17:15:07.541Z,100573.03
2023-06-04T17:18:12.856Z,100568.34
2023-06-04T17:21:18.041Z,100566.66
2023-06-04T17:24:20.459Z,100570.47
2023-06-04T17:27:22.701Z,100577.09
2023-06-04T17:30:25.600Z,100575.31
2023-06-04T17:33:27.640Z,100575.41
2023-06-04T17:36:30.088Z,100576.75
2023-06-04T17:39:33.626Z,100576.37
2023-06-04T17:42:35.998Z,100574.69
2023-06-04T17:45:38.038Z,100579.34
2023-06-04T17:48:40.460Z,100574.16
2023-06-04T17:51:42.601Z,100571.03
2023-06-04T17:54:45.500Z,100576.50
2023-06-04T17:57:47.723Z,100581.06
2023-06-04T18:00:50.694Z,100582.69
2023-06-04T18:03:53.347Z,100578.28
2023-06-04T18:06:57.233Z,100575.78
2023-06-04T18:10:01.547Z,100575.59
2023-06-04T18:13:04.402Z,100575.78
2023-06-04T18:16:08.118Z,100569.75
2023-06-04T18:19:10.576Z,100574.12
2023-06-04T18:22:13.679Z,100578.09
2023-06-04T18:25:15.861Z,100578.91
2023-06-04T18:28:18.498Z,100578.41
2023-06-04T18:31:23.481Z,100584.75
2023-06-04T18:34:29.462Z,100584.88
2023-06-04T18:37:32.282Z,100576.69
2023-06-04T18:40:34.682Z,100582.81
2023-06-04T18:43:38.112Z,100584.03
2023-06-04T18:46:40.628Z,100587.97
2023-06-04T18:49:42.890Z,100596.72
2023-06-04T18:52:48.123Z,100595.88
2023-06-04T18:55:50.224Z,100600.00
2023-06-04T18:58:53.986Z,100605.34
2023-06-04T19:01:57.116Z,100607.09
2023-06-04T19:04:59.573Z,100611.59
2023-06-04T19:08:05.054Z,100613.44
2023-06-04T19:11:08.077Z,100611.53
2023-06-04T19:14:10.556Z,100613.84
2023-06-04T19:17:19.869Z,100612.00
2023-06-04T19:20:23.060Z,100609.34
2023-06-04T19:23:25.777Z,100606.47
2023-06-04T19:26:27.886Z,100615.28
2023-06-04T19:29:30.212Z,100614.16
2023-06-04T19:32:32.609Z,100613.66
2023-06-04T19:35:35.003Z,100615.25
2023-06-04T19:38:38.765Z,100618.22
2023-06-04T19:41:41.153Z,100615.75
2023-06-04T19:44:43.801Z,100624.47
2023-06-04T19:47:46.405Z,100618.22
2023-06-04T19:50:48.985Z,100615.88
2023-06-04T19:53:51.515Z,100616.34
2023-06-04T19:56:53.550Z,100611.62
2023-06-04T19:59:56.191Z,100617.69
2023-06-04T20:02:58.553Z,100618.00
2023-06-04T20:06:01.622Z,100620.22
2023-06-04T20:09:04.934Z,100620.06
2023-06-04T20:12:08.093Z,100614.19
2023-06-04T20:15:10.607Z,100622.47
2023-06-04T20:18:13.203Z,100621.44
2023-06-04T20:21:15.439Z,100616.69
2023-06-04T20:24:19.522Z,100623.28
2023-06-04T20:27:24.983Z,100625.12
2023-06-04T20:30:27.691Z,100610.81
2023-06-04T20:33:30.043Z,100612.94
2023-06-04T20:36:33.796Z,100615.72
2023-06-04T20:39:40.271Z,100610.69
2023-06-04T20:42:42.643Z,100612.66
2023-06-04T20:45:44.713Z,100613.94
2023-06-04T20:48:47.365Z,100610.75
2023-06-04T20:51:49.477Z,100616.59
2023-06-04T20:54:51.868Z,100611.59
2023-06-04T20:57:53.891Z,100613.25
2023-06-04T21:00:56.608Z,100613.25
2023-06-04T21:04:01.261Z,100608.53
2023-06-04T21:07:04.639Z,100609.66
2023-06-04T21:10:06.881Z,100602.53
2023-06-04T21:13:09.296Z,100607.47
2023-06-04T21:16:11.510Z,100604.09
2023-06-04T21:19:13.952Z,100604.56
2023-06-04T21:22:16.139Z,100601.06
2023-06-04T21:25:18.656Z,100611.03
2023-06-04T21:28:20.750Z,100616.19
2023-06-04T21:31:23.225Z,100606.97
2023-06-04T21:34:25.427Z,100611.09
2023-06-04T21:37:27.890Z,100618.91
2023-06-04T21:40:29.937Z,100612.88
2023-06-04T21:43:32.497Z,100620.03
2023-06-04T21:46:36.198Z,100620.75
2023-06-04T21:49:38.759Z,100619.38
2023-06-04T21:52:41.132Z,100615.88
2023-06-04T21:55:43.623Z,100624.88
2023-06-04T21:58:46.514Z,100624.44
2023-06-04T22:01:49.414Z,100622.72
2023-06-04T22:04:51.967Z,100619.09
2023-06-04T22:07:54.141Z,100624.28
2023-06-04T22:10:57.613Z,100627.66
2023-06-04T22:13:59.648Z,100627.00
2023-06-04T22:17:02.080Z,100626.41
2023-06-04T22:20:04.494Z,100631.19
2023-06-04T22:23:07.062Z,100628.94
2023-06-04T22:26:10.048Z,100635.38
2023-06-04T22:29:17.785Z,100632.84
2023-06-04T22:32:19.976Z,100635.38
2023-06-04T22:35:23.264Z,100636.09
2023-06-04T22:38:25.969Z,100627.31
2023-06-04T22:41:28.814Z,100632.78
2023-06-04T22:44:30.907Z,100631.78
2023-06-04T22:47:33.685Z,100626.31
2023-06-04T22:50:38.151Z,100632.06
2023-06-04T22:53:40.934Z,100630.69
2023-06-04T22:56:42.967Z,100627.75
2023-06-04T22:59:46.305Z,100626.50
2023-06-04T23:02:48.517Z,100623.84
2023-06-04T23:05:51.094Z,100624.97
2023-06-04T23:08:57.951Z,100630.81
2023-06-04T23:12:00.416Z,100627.03
2023-06-04T23:15:03.376Z,100629.44
2023-06-04T23:18:06.371Z,100625.53
2023-06-04T23:21:08.787Z,100623.00
2023-06-04T23:24:11.586Z,100616.00
2023-06-04T23:27:15.978Z,100615.63
2023-06-04T23:30:20.395Z,100625.78
2023-06-04T23:33:22.448Z,100624.97
2023-06-04T23:36:24.866Z,100621.75
2023-06-04T23:39:30.349Z,100620.34
2023-06-04T23:42:33.407Z,100616.59
2023-06-04T23:45:35.455Z,100612.56
2023-06-04T23:48:37.872Z,100619.81
2023-06-04T23:51:40.057Z,100614.38
2023-06-04T23:54:42.676Z,100615.47
2023-06-04T23:57:44.877Z,100612.41
